Time;durP1;ratioP1;P1;durP2;ratioP2;P2;SDS_P1;SDS_P2;PMS_P1;PMS_P2;Temp;Humidity;BMP_temperature;BMP_pressure;BME280_temperature;BME280_humidity;BME280_pressure;Samples;Min_cycle;Max_cycle;Signal;HPM_P1;HPM_P2
2021/04/28 00:01:54;;;;;;;4.03;3.27;;;;;;;;;;5016092;28;20203;-86
2021/04/28 00:04:21;;;;;;;4.93;3.00;;;;;;;;;;5033369;28;20212;-85
2021/04/28 00:06:48;;;;;;;4.10;3.10;;;;;;;;;;5031760;28;20637;-86
2021/04/28 00:09:14;;;;;;;3.73;3.10;;;;;;;;;;5033679;28;20236;-86
2021/04/28 00:11:40;;;;;;;4.63;3.07;;;;;;;;;;5033524;28;20212;-86
2021/04/28 00:14:07;;;;;;;3.40;3.10;;;;;;;;;;5016238;28;20211;-85
2021/04/28 00:16:33;;;;;;;4.77;3.00;;;;;;;;;;5033777;28;20548;-84
2021/04/28 00:19:00;;;;;;;3.47;3.17;;;;;;;;;;5033909;28;20188;-86
2021/04/28 00:21:27;;;;;;;8.57;3.47;;;;;;;;;;5033336;28;20231;-86
2021/04/28 00:23:54;;;;;;;3.87;3.20;;;;;;;;;;5032303;28;20195;-85
2021/04/28 00:26:20;;;;;;;6.37;3.43;;;;;;;;;;5015771;28;20228;-86
2021/04/28 00:28:47;;;;;;;8.57;3.60;;;;;;;;;;5016099;28;20691;-86
2021/04/28 00:31:13;;;;;;;4.13;3.33;;;;;;;;;;5033238;28;20254;-85
2021/04/28 00:33:40;;;;;;;3.60;2.80;;;;;;;;;;5033574;28;20692;-86
2021/04/28 00:36:06;;;;;;;5.17;3.10;;;;;;;;;;5016086;28;20652;-85
2021/04/28 00:38:34;;;;;;;4.40;3.10;;;;;;;;;;5033725;28;20211;-85
2021/04/28 00:41:01;;;;;;;3.93;3.20;;;;;;;;;;5032960;28;20265;-85
2021/04/28 00:43:27;;;;;;;7.07;3.03;;;;;;;;;;5015972;28;20208;-86
2021/04/28 00:45:54;;;;;;;3.63;3.13;;;;;;;;;;5015847;28;20193;-85
2021/04/28 00:48:20;;;;;;;8.40;3.17;;;;;;;;;;5015182;28;20215;-85
2021/04/28 00:50:47;;;;;;;10.17;3.37;;;;;;;;;;5032679;28;20719;-85
2021/04/28 00:53:15;;;;;;;4.63;3.50;;;;;;;;;;5019327;28;20687;-86
2021/04/28 00:55:42;;;;;;;4.70;3.37;;;;;;;;;;5019447;28;20238;-86
2021/04/28 00:58:09;;;;;;;8.23;3.50;;;;;;;;;;5036778;28;20208;-85
2021/04/28 01:00:35;;;;;;;9.43;3.30;;;;;;;;;;5037042;28;20235;-85
2021/04/28 01:03:02;;;;;;;4.83;3.37;;;;;;;;;;5019373;28;20733;-86
2021/04/28 01:05:28;;;;;;;5.33;3.60;;;;;;;;;;5037008;28;20212;-85
2021/04/28 01:07:55;;;;;;;6.70;3.20;;;;;;;;;;5018809;28;20686;-85
2021/04/28 01:10:23;;;;;;;5.17;3.30;;;;;;;;;;5018961;28;20226;-86
2021/04/28 01:12:50;;;;;;;5.33;3.53;;;;;;;;;;5019172;28;20551;-86
2021/04/28 01:15:17;;;;;;;4.37;3.63;;;;;;;;;;5036679;28;20173;-85
2021/04/28 01:17:43;;;;;;;5.77;3.43;;;;;;;;;;5019192;28;20200;-85
2021/04/28 01:20:12;;;;;;;3.80;3.40;;;;;;;;;;5018460;28;20203;-86
2021/04/28 01:22:40;;;;;;;3.47;3.17;;;;;;;;;;5018982;28;20200;-86
2021/04/28 01:25:07;;;;;;;6.00;3.57;;;;;;;;;;5036007;28;20216;-86
2021/04/28 01:27:35;;;;;;;8.80;3.50;;;;;;;;;;5035643;28;20565;-85
2021/04/28 01:30:01;;;;;;;4.10;3.70;;;;;;;;;;5036420;28;20227;-86
2021/04/28 01:32:28;;;;;;;8.63;3.73;;;;;;;;;;5018424;28;20286;-86
2021/04/28 01:34:55;;;;;;;3.93;3.30;;;;;;;;;;5018758;28;20671;-85
2021/04/28 01:37:22;;;;;;;3.57;3.20;;;;;;;;;;5018543;28;20230;-86
2021/04/28 01:39:50;;;;;;;7.23;3.93;;;;;;;;;;5018782;28;20262;-85
2021/04/28 01:42:17;;;;;;;5.43;3.77;;;;;;;;;;5035194;28;20200;-85
2021/04/28 01:44:44;;;;;;;4.37;3.60;;;;;;;;;;5035671;28;20223;-85
2021/04/28 01:47:10;;;;;;;4.97;3.77;;;;;;;;;;5036029;28;20203;-85
2021/04/28 01:49:36;;;;;;;6.27;3.60;;;;;;;;;;5035487;28;20260;-86
2021/04/28 01:52:03;;;;;;;12.53;4.40;;;;;;;;;;5035672;28;20246;-85
2021/04/28 01:54:29;;;;;;;3.93;3.40;;;;;;;;;;5034665;28;20565;-85
2021/04/28 01:56:56;;;;;;;9.90;4.03;;;;;;;;;;5035404;28;20212;-85
2021/04/28 01:59:23;;;;;;;5.97;3.70;;;;;;;;;;5034585;28;20671;-84
2021/04/28 02:01:50;;;;;;;6.87;3.47;;;;;;;;;;5035330;28;20208;-85
2021/04/28 02:04:17;;;;;;;4.33;3.93;;;;;;;;;;5017586;28;20211;-85
2021/04/28 02:06:43;;;;;;;4.30;3.90;;;;;;;;;;5035354;28;20259;-85
2021/04/28 02:09:10;;;;;;;8.03;4.17;;;;;;;;;;5035579;28;20696;-85
2021/04/28 02:11:36;;;;;;;4.57;3.63;;;;;;;;;;5035318;28;20212;-85
2021/04/28 02:14:04;;;;;;;5.60;3.93;;;;;;;;;;5034993;28;20223;-85
2021/04/28 02:16:31;;;;;;;5.27;3.90;;;;;;;;;;5018165;28;20254;-85
2021/04/28 02:18:58;;;;;;;5.50;4.13;;;;;;;;;;5035353;28;20707;-85
2021/04/28 02:21:24;;;;;;;5.03;3.80;;;;;;;;;;5035540;28;20213;-85
2021/04/28 02:23:51;;;;;;;4.63;4.20;;;;;;;;;;5035025;28;20238;-84
2021/04/28 02:26:17;;;;;;;5.10;4.60;;;;;;;;;;5017365;28;20228;-85
2021/04/28 02:28:43;;;;;;;6.57;4.20;;;;;;;;;;5035432;28;20565;-85
2021/04/28 02:31:10;;;;;;;5.23;4.33;;;;;;;;;;5035317;28;20536;-85
2021/04/28 02:33:37;;;;;;;8.97;4.90;;;;;;;;;;5033532;28;20734;-85
2021/04/28 02:36:04;;;;;;;6.27;4.33;;;;;;;;;;5017380;28;20200;-85
2021/04/28 02:38:31;;;;;;;5.77;4.30;;;;;;;;;;5017510;28;20230;-85
2021/04/28 02:40:58;;;;;;;4.93;3.83;;;;;;;;;;5017197;28;20983;-85
2021/04/28 02:43:24;;;;;;;5.83;3.97;;;;;;;;;;5034824;28;20208;-84
2021/04/28 02:45:50;;;;;;;4.40;4.00;;;;;;;;;;5035083;28;20188;-84
2021/04/28 02:48:19;;;;;;;4.50;4.10;;;;;;;;;;5017389;28;20208;-85
2021/04/28 02:50:45;;;;;;;4.43;4.03;;;;;;;;;;5034845;28;20255;-85
2021/04/28 02:53:13;;;;;;;6.47;4.93;;;;;;;;;;5017201;28;20193;-85
2021/04/28 02:55:39;;;;;;;12.13;4.57;;;;;;;;;;5034167;28;20208;-84
2021/04/28 02:58:06;;;;;;;8.83;4.80;;;;;;;;;;5033514;28;20238;-85
2021/04/28 03:00:32;;;;;;;5.60;4.33;;;;;;;;;;5033964;28;20698;-84
2021/04/28 03:02:58;;;;;;;7.37;4.23;;;;;;;;;;5017111;28;20245;-84
2021/04/28 03:05:26;;;;;;;8.90;4.77;;;;;;;;;;5034275;28;20209;-85
2021/04/28 03:07:53;;;;;;;8.47;4.67;;;;;;;;;;5032782;28;20224;-85
2021/04/28 03:10:19;;;;;;;5.03;4.50;;;;;;;;;;5016676;28;20248;-86
2021/04/28 03:12:46;;;;;;;7.63;4.50;;;;;;;;;;5034208;28;20208;-86
2021/04/28 03:15:14;;;;;;;7.13;4.70;;;;;;;;;;5016366;28;20204;-86
2021/04/28 03:17:40;;;;;;;6.57;4.70;;;;;;;;;;5016754;28;20238;-86
2021/04/28 03:20:07;;;;;;;5.43;4.30;;;;;;;;;;5034097;28;20209;-85
2021/04/28 03:22:34;;;;;;;6.30;4.97;;;;;;;;;;5034417;28;20208;-85
2021/04/28 03:25:01;;;;;;;5.00;4.43;;;;;;;;;;5033906;28;20215;-86
2021/04/28 03:27:27;;;;;;;6.97;4.83;;;;;;;;;;5033829;28;20231;-86
2021/04/28 03:29:53;;;;;;;5.83;4.53;;;;;;;;;;5034145;28;20227;-86
2021/04/28 03:32:19;;;;;;;7.73;5.07;;;;;;;;;;5033136;28;20192;-86
2021/04/28 03:34:46;;;;;;;7.23;4.63;;;;;;;;;;5033945;28;20212;-84
2021/04/28 03:37:12;;;;;;;5.20;4.53;;;;;;;;;;5034027;28;20184;-85
2021/04/28 03:39:39;;;;;;;7.50;4.70;;;;;;;;;;5033935;28;20172;-84
2021/04/28 03:42:05;;;;;;;11.57;4.90;;;;;;;;;;5032923;28;20196;-85
2021/04/28 03:44:31;;;;;;;6.40;4.73;;;;;;;;;;5016424;28;20208;-84
2021/04/28 03:46:58;;;;;;;5.83;4.70;;;;;;;;;;5016231;28;20238;-84
2021/04/28 03:49:24;;;;;;;8.50;4.30;;;;;;;;;;5033877;28;20274;-84
2021/04/28 03:51:50;;;;;;;7.67;4.87;;;;;;;;;;5033770;28;20200;-85
2021/04/28 03:54:17;;;;;;;6.83;4.10;;;;;;;;;;5016391;28;20188;-84
2021/04/28 03:56:45;;;;;;;5.20;4.70;;;;;;;;;;5016160;28;20530;-84
2021/04/28 03:59:11;;;;;;;10.10;4.90;;;;;;;;;;5033655;28;20679;-83
2021/04/28 04:01:37;;;;;;;7.90;4.70;;;;;;;;;;5016241;28;20203;-84
2021/04/28 04:04:04;;;;;;;5.60;4.90;;;;;;;;;;5033810;28;20580;-84
2021/04/28 04:06:31;;;;;;;8.00;4.60;;;;;;;;;;5012952;28;20576;-84
2021/04/28 04:08:58;;;;;;;9.00;4.73;;;;;;;;;;5014107;28;20315;-84
2021/04/28 04:11:24;;;;;;;5.17;4.67;;;;;;;;;;5012784;28;20219;-85
2021/04/28 04:13:51;;;;;;;5.30;4.70;;;;;;;;;;5014018;28;20217;-83
2021/04/28 04:16:17;;;;;;;5.47;4.73;;;;;;;;;;5012859;28;20205;-83
2021/04/28 04:18:43;;;;;;;5.67;5.10;;;;;;;;;;5013562;28;20247;-83
2021/04/28 04:21:09;;;;;;;8.97;4.70;;;;;;;;;;5013926;28;20209;-83
2021/04/28 04:23:36;;;;;;;8.13;5.27;;;;;;;;;;5013624;28;20209;-83
2021/04/28 04:26:02;;;;;;;8.87;5.10;;;;;;;;;;5013381;28;20264;-84
2021/04/28 04:28:28;;;;;;;5.20;4.80;;;;;;;;;;5016471;28;20204;-83
2021/04/28 04:30:55;;;;;;;5.50;5.07;;;;;;;;;;5015970;28;20248;-83
2021/04/28 04:33:21;;;;;;;5.23;4.73;;;;;;;;;;5016440;28;20212;-84
2021/04/28 04:35:47;;;;;;;6.67;5.10;;;;;;;;;;5016096;28;20205;-83
2021/04/28 04:38:16;;;;;;;9.03;4.73;;;;;;;;;;5016319;28;20209;-83
2021/04/28 04:40:42;;;;;;;6.82;5.22;;;;;;;;;;5016640;28;21234;-83
2021/04/28 04:43:08;;;;;;;5.67;4.90;;;;;;;;;;5016282;28;20665;-84
2021/04/28 04:45:35;;;;;;;7.10;5.53;;;;;;;;;;5015931;28;20661;-84
2021/04/28 04:48:02;;;;;;;6.27;5.13;;;;;;;;;;5017763;28;20200;-83
2021/04/28 04:50:29;;;;;;;6.87;5.20;;;;;;;;;;5015980;28;20248;-83
2021/04/28 04:52:55;;;;;;;7.03;5.17;;;;;;;;;;5015675;28;20200;-84
2021/04/28 04:55:22;;;;;;;10.30;5.50;;;;;;;;;;5016754;28;20707;-84
2021/04/28 04:57:48;;;;;;;9.03;5.70;;;;;;;;;;5017041;28;20209;-83
2021/04/28 05:00:15;;;;;;;8.67;5.10;;;;;;;;;;5015931;28;20189;-83
2021/04/28 05:02:41;;;;;;;6.63;5.37;;;;;;;;;;5016829;28;20263;-84
2021/04/28 05:05:09;;;;;;;7.10;5.60;;;;;;;;;;5017053;28;20212;-83
2021/04/28 05:07:35;;;;;;;8.30;5.47;;;;;;;;;;5015482;28;20279;-83
2021/04/28 05:10:02;;;;;;;7.47;5.53;;;;;;;;;;5015443;28;20259;-83
2021/04/28 05:12:28;;;;;;;11.03;5.50;;;;;;;;;;5017064;28;20677;-84
2021/04/28 05:14:54;;;;;;;7.33;5.37;;;;;;;;;;5016906;28;20213;-83
2021/04/28 05:17:21;;;;;;;5.90;5.30;;;;;;;;;;5015097;28;20251;-83
2021/04/28 05:19:47;;;;;;;6.00;5.27;;;;;;;;;;5015354;28;20201;-83
2021/04/28 05:22:14;;;;;;;9.13;5.63;;;;;;;;;;5016500;28;20189;-83
2021/04/28 05:24:40;;;;;;;7.47;5.60;;;;;;;;;;5014775;28;20197;-82
2021/04/28 05:27:06;;;;;;;6.10;5.47;;;;;;;;;;5016368;28;20229;-83
2021/04/28 05:29:32;;;;;;;8.47;5.10;;;;;;;;;;5014935;28;20213;-83
2021/04/28 05:31:59;;;;;;;7.50;5.22;;;;;;;;;;5014740;28;20809;-84
2021/04/28 05:34:25;;;;;;;7.27;4.90;;;;;;;;;;5015762;28;20232;-83
2021/04/28 05:36:51;;;;;;;6.60;5.13;;;;;;;;;;5014632;28;20672;-82
2021/04/28 05:39:18;;;;;;;6.53;5.27;;;;;;;;;;5015393;28;20193;-85
2021/04/28 05:41:44;;;;;;;7.17;5.13;;;;;;;;;;5016823;28;20216;-85
2021/04/28 05:44:11;;;;;;;10.27;5.17;;;;;;;;;;5015447;28;20201;-84
2021/04/28 05:46:37;;;;;;;9.47;5.23;;;;;;;;;;5016398;28;20212;-84
2021/04/28 05:49:04;;;;;;;7.13;5.27;;;;;;;;;;5016416;28;20536;-83
2021/04/28 05:51:30;;;;;;;9.63;5.63;;;;;;;;;;5016807;28;20256;-84
2021/04/28 05:53:56;;;;;;;8.00;5.10;;;;;;;;;;5014545;28;20259;-83
2021/04/28 05:56:23;;;;;;;9.73;5.10;;;;;;;;;;5014663;28;20660;-84
2021/04/28 05:58:49;;;;;;;10.03;5.07;;;;;;;;;;5031357;28;20205;-86
2021/04/28 06:01:15;;;;;;;6.23;5.03;;;;;;;;;;5013958;28;20193;-84
2021/04/28 06:03:42;;;;;;;6.77;5.30;;;;;;;;;;5016140;28;20649;-84
2021/04/28 06:06:08;;;;;;;7.30;5.30;;;;;;;;;;5019909;28;20232;-86
2021/04/28 06:08:34;;;;;;;9.83;4.87;;;;;;;;;;5035612;28;20180;-83
2021/04/28 06:11:01;;;;;;;6.53;5.00;;;;;;;;;;5018135;28;20609;-84
2021/04/28 06:13:28;;;;;;;8.27;4.93;;;;;;;;;;5036223;28;20204;-84
2021/04/28 06:15:54;;;;;;;9.33;5.20;;;;;;;;;;5018737;28;20196;-84
2021/04/28 06:18:20;;;;;;;12.50;4.80;;;;;;;;;;5036061;28;20216;-84
2021/04/28 06:20:47;;;;;;;5.97;5.10;;;;;;;;;;5017671;28;20738;-85
2021/04/28 06:23:14;;;;;;;6.33;4.40;;;;;;;;;;5018134;28;20204;-87
2021/04/28 06:25:40;;;;;;;5.93;5.17;;;;;;;;;;5035277;28;20970;-85
2021/04/28 06:28:07;;;;;;;10.90;5.50;;;;;;;;;;5017930;28;20200;-85
2021/04/28 06:30:34;;;;;;;10.30;5.13;;;;;;;;;;5017611;28;20249;-85
2021/04/28 06:33:00;;;;;;;7.17;5.00;;;;;;;;;;5035274;28;20169;-84
2021/04/28 06:35:26;;;;;;;5.73;5.10;;;;;;;;;;5035175;28;20185;-86
2021/04/28 06:37:53;;;;;;;9.53;4.97;;;;;;;;;;5017525;28;20204;-86
2021/04/28 06:40:20;;;;;;;9.90;5.13;;;;;;;;;;5035007;28;20181;-86
2021/04/28 06:42:47;;;;;;;7.60;5.30;;;;;;;;;;5017112;28;20559;-85
2021/04/28 06:45:13;;;;;;;9.23;5.23;;;;;;;;;;5034543;28;20216;-86
2021/04/28 06:47:40;;;;;;;6.03;5.43;;;;;;;;;;5033777;28;20714;-85
2021/04/28 06:50:07;;;;;;;7.13;4.83;;;;;;;;;;5033128;28;20306;-85
2021/04/28 06:52:33;;;;;;;10.30;5.40;;;;;;;;;;5034624;28;20177;-85
2021/04/28 06:54:59;;;;;;;5.87;5.27;;;;;;;;;;5034687;28;20194;-85
2021/04/28 06:57:25;;;;;;;7.37;5.60;;;;;;;;;;5016886;28;20204;-84
2021/04/28 06:59:51;;;;;;;7.50;5.47;;;;;;;;;;5017000;28;20722;-84
2021/04/28 07:02:18;;;;;;;8.43;5.03;;;;;;;;;;5017073;28;20522;-85
2021/04/28 07:04:45;;;;;;;12.23;5.40;;;;;;;;;;5033347;28;20184;-86
2021/04/28 07:07:11;;;;;;;8.63;5.40;;;;;;;;;;5013278;28;20233;-84
2021/04/28 07:09:37;;;;;;;7.93;5.30;;;;;;;;;;5014519;28;20188;-84
2021/04/28 07:12:03;;;;;;;11.47;5.23;;;;;;;;;;5013647;28;20200;-86
2021/04/28 07:14:29;;;;;;;6.17;5.53;;;;;;;;;;5013740;28;20197;-85
2021/04/28 07:16:56;;;;;;;8.30;5.43;;;;;;;;;;5013679;28;20665;-85
2021/04/28 07:19:22;;;;;;;9.10;5.57;;;;;;;;;;5014747;28;20239;-86
2021/04/28 07:21:49;;;;;;;7.00;5.57;;;;;;;;;;5014398;28;20249;-85
2021/04/28 07:24:15;;;;;;;6.20;5.60;;;;;;;;;;5013030;28;20209;-84
2021/04/28 07:26:41;;;;;;;11.10;6.03;;;;;;;;;;5014169;28;20245;-86
2021/04/28 07:29:07;;;;;;;8.93;5.37;;;;;;;;;;5013352;28;20927;-86
2021/04/28 07:31:33;;;;;;;7.73;5.70;;;;;;;;;;5013405;28;20272;-86
2021/04/28 07:33:59;;;;;;;12.57;5.90;;;;;;;;;;5013141;28;20610;-84
2021/04/28 07:36:27;;;;;;;7.87;6.07;;;;;;;;;;5013265;28;20320;-85
2021/04/28 07:38:54;;;;;;;9.23;6.10;;;;;;;;;;5013353;28;20209;-83
2021/04/28 07:41:20;;;;;;;10.87;6.03;;;;;;;;;;5013060;28;20189;-84
2021/04/28 07:43:46;;;;;;;9.27;6.10;;;;;;;;;;5012958;28;20201;-83
2021/04/28 07:46:13;;;;;;;6.73;6.00;;;;;;;;;;5013266;28;20259;-87
2021/04/28 07:48:39;;;;;;;8.17;5.80;;;;;;;;;;5014807;28;20216;-86
2021/04/28 07:51:05;;;;;;;8.13;6.18;;;;;;;;;;5012393;28;20766;-88
2021/04/28 07:53:31;;;;;;;9.93;6.27;;;;;;;;;;5014423;28;20244;-88
2021/04/28 07:55:58;;;;;;;9.47;6.40;;;;;;;;;;5013623;28;20212;-86
2021/04/28 07:58:25;;;;;;;14.20;6.50;;;;;;;;;;5013415;28;20239;-87
2021/04/28 08:00:51;;;;;;;13.63;6.70;;;;;;;;;;5013941;28;20196;-85
2021/04/28 08:03:17;;;;;;;9.77;6.47;;;;;;;;;;5017305;28;20200;-87
2021/04/28 08:05:43;;;;;;;7.43;6.17;;;;;;;;;;5017589;28;20200;-86
2021/04/28 08:08:09;;;;;;;9.53;6.30;;;;;;;;;;5038373;28;20215;-84
2021/04/28 08:10:35;;;;;;;10.27;7.57;;;;;;;;;;5019919;28;20235;-83
2021/04/28 08:13:08;;;;;;;7.87;7.03;;;;;;;;;;5037759;28;20188;-85
2021/04/28 08:15:34;;;;;;;9.37;6.87;;;;;;;;;;5037893;28;20184;-84
2021/04/28 08:18:00;;;;;;;8.73;6.57;;;;;;;;;;5020566;28;20200;-85
2021/04/28 08:20:26;;;;;;;8.67;7.00;;;;;;;;;;5037742;28;20212;-86
2021/04/28 08:22:52;;;;;;;15.33;7.20;;;;;;;;;;5020495;28;20239;-84
2021/04/28 08:25:19;;;;;;;11.20;6.87;;;;;;;;;;5020129;28;20254;-86
2021/04/28 08:27:45;;;;;;;10.33;7.13;;;;;;;;;;5037778;28;20223;-86
2021/04/28 08:30:13;;;;;;;14.53;6.60;;;;;;;;;;5019771;28;20216;-85
2021/04/28 08:32:39;;;;;;;13.20;6.80;;;;;;;;;;5037249;28;20687;-85
2021/04/28 08:35:06;;;;;;;12.13;6.50;;;;;;;;;;5019717;28;20250;-84
2021/04/28 08:37:33;;;;;;;7.40;6.70;;;;;;;;;;5037443;28;20644;-84
2021/04/28 08:39:59;;;;;;;11.90;6.70;;;;;;;;;;5036803;28;20599;-84
2021/04/28 08:42:25;;;;;;;10.07;6.67;;;;;;;;;;5036736;28;20243;-83
2021/04/28 08:44:52;;;;;;;8.47;6.77;;;;;;;;;;5036346;28;20208;-84
2021/04/28 08:47:20;;;;;;;10.40;7.00;;;;;;;;;;5019857;28;20671;-85
2021/04/28 08:49:46;;;;;;;11.37;6.60;;;;;;;;;;5037304;28;20212;-86
2021/04/28 08:52:13;;;;;;;9.47;7.00;;;;;;;;;;5036933;28;20259;-86
2021/04/28 08:54:39;;;;;;;9.57;7.03;;;;;;;;;;5036005;28;20660;-84
2021/04/28 08:57:06;;;;;;;10.67;7.20;;;;;;;;;;5036618;28;20215;-84
2021/04/28 08:59:32;;;;;;;10.20;7.03;;;;;;;;;;5036526;28;20238;-84
2021/04/28 09:02:11;;;;;;;9.90;7.23;;;;;;;;;;5036837;28;20213;-84
2021/04/28 09:04:38;;;;;;;8.87;6.73;;;;;;;;;;5018543;28;20200;-84
2021/04/28 09:07:04;;;;;;;11.80;7.03;;;;;;;;;;5015327;28;20224;-84
2021/04/28 09:09:30;;;;;;;9.43;6.73;;;;;;;;;;5016599;28;20223;-84
2021/04/28 09:11:58;;;;;;;10.27;6.73;;;;;;;;;;5014931;28;20240;-82
2021/04/28 09:14:25;;;;;;;8.30;7.40;;;;;;;;;;5016442;28;20232;-83
2021/04/28 09:16:59;;;;;;;8.87;7.00;;;;;;;;;;5014443;28;20529;-83
2021/04/28 09:19:28;;;;;;;11.77;8.53;;;;;;;;;;5015043;28;20558;-81
2021/04/28 09:21:59;;;;;;;9.57;7.03;;;;;;;;;;5016090;28;20232;-84
2021/04/28 09:24:27;;;;;;;11.80;8.33;;;;;;;;;;5015063;28;20234;-83
2021/04/28 09:26:55;;;;;;;8.13;7.33;;;;;;;;;;5014850;28;20775;-86
2021/04/28 09:29:22;;;;;;;14.70;8.00;;;;;;;;;;5014723;28;20223;-83
2021/04/28 09:31:55;;;;;;;15.43;9.20;;;;;;;;;;5014893;28;20244;-83
2021/04/28 09:34:25;;;;;;;20.00;7.93;;;;;;;;;;5014737;28;20727;-83
2021/04/28 09:36:59;;;;;;;11.07;7.90;;;;;;;;;;5015113;28;20201;-84
2021/04/28 09:39:25;;;;;;;9.27;7.73;;;;;;;;;;5015857;28;20251;-85
2021/04/28 09:41:56;;;;;;;9.87;7.87;;;;;;;;;;5014541;28;20204;-84
2021/04/28 09:44:29;;;;;;;10.80;8.73;;;;;;;;;;5014796;28;20193;-85
2021/04/28 09:46:56;;;;;;;11.53;8.97;;;;;;;;;;5015862;28;20178;-81
2021/04/28 09:49:23;;;;;;;11.20;9.03;;;;;;;;;;5014749;28;20252;-82
2021/04/28 09:51:53;;;;;;;15.50;9.10;;;;;;;;;;5015956;28;20704;-84
2021/04/28 09:54:27;;;;;;;11.63;9.37;;;;;;;;;;5016162;28;20178;-83
2021/04/28 09:56:53;;;;;;;14.33;9.10;;;;;;;;;;5015198;28;20524;-86
2021/04/28 09:59:19;;;;;;;11.20;8.97;;;;;;;;;;5014585;28;20236;-81
2021/04/28 10:01:45;;;;;;;12.70;9.23;;;;;;;;;;5014428;28;20247;-83
2021/04/28 10:04:12;;;;;;;14.13;9.33;;;;;;;;;;5015119;28;20212;-83
2021/04/28 10:06:42;;;;;;;12.00;9.03;;;;;;;;;;5022990;28;20263;-82
2021/04/28 10:09:23;;;;;;;18.57;8.60;;;;;;;;;;5017852;28;20203;-78
2021/04/28 10:11:50;;;;;;;11.80;8.93;;;;;;;;;;5033760;28;20683;-84
2021/04/28 10:14:16;;;;;;;10.73;9.30;;;;;;;;;;5035064;28;20237;-80
2021/04/28 10:16:43;;;;;;;10.73;8.53;;;;;;;;;;5016971;28;20200;-82
2021/04/28 10:19:09;;;;;;;14.77;9.63;;;;;;;;;;5017192;28;20200;-82
2021/04/28 10:21:37;;;;;;;15.33;10.03;;;;;;;;;;5035331;28;20200;-83
2021/04/28 10:24:03;;;;;;;12.53;9.43;;;;;;;;;;5034517;28;20216;-84
2021/04/28 10:26:30;;;;;;;17.90;9.77;;;;;;;;;;5033832;28;20691;-84
2021/04/28 10:28:58;;;;;;;13.90;9.73;;;;;;;;;;5017395;28;20204;-82
2021/04/28 10:31:24;;;;;;;13.57;10.27;;;;;;;;;;5017357;28;20247;-83
2021/04/28 10:33:51;;;;;;;12.40;9.43;;;;;;;;;;5017092;28;20200;-83
2021/04/28 10:36:17;;;;;;;12.67;9.67;;;;;;;;;;5034391;28;20679;-83
2021/04/28 10:38:43;;;;;;;12.00;9.93;;;;;;;;;;5017394;28;20184;-83
2021/04/28 10:41:33;;;;;;;11.97;9.73;;;;;;;;;;5017338;28;20193;-82
2021/04/28 10:44:00;;;;;;;14.03;10.37;;;;;;;;;;5034995;28;20184;-83
2021/04/28 10:46:26;;;;;;;20.07;10.43;;;;;;;;;;5017017;28;20554;-84
2021/04/28 10:48:53;;;;;;;11.97;9.60;;;;;;;;;;5034425;28;20683;-83
2021/04/28 10:51:33;;;;;;;15.70;10.80;;;;;;;;;;5016893;28;20251;-82
2021/04/28 10:54:14;;;;;;;12.53;10.37;;;;;;;;;;5016493;28;20238;-83
2021/04/28 10:56:56;;;;;;;14.23;10.03;;;;;;;;;;5015787;28;20207;-83
2021/04/28 10:59:31;;;;;;;12.63;10.07;;;;;;;;;;5034018;28;20212;-82
2021/04/28 11:02:04;;;;;;;15.53;11.13;;;;;;;;;;5016472;28;20196;-81
2021/04/28 11:04:30;;;;;;;12.53;9.67;;;;;;;;;;5016987;28;20604;-81
2021/04/28 11:06:56;;;;;;;15.00;9.97;;;;;;;;;;5016586;28;20228;-84
2021/04/28 11:09:25;;;;;;;12.30;9.40;;;;;;;;;;5034238;28;20191;-82
2021/04/28 11:11:56;;;;;;;9.83;8.87;;;;;;;;;;5016082;28;20227;-84
2021/04/28 11:14:37;;;;;;;15.03;9.50;;;;;;;;;;5016099;28;20204;-81
2021/04/28 11:17:21;;;;;;;11.10;9.00;;;;;;;;;;5016225;28;20262;-84
2021/04/28 11:19:51;;;;;;;16.50;9.57;;;;;;;;;;5032569;28;20204;-81
2021/04/28 11:22:21;;;;;;;10.87;8.70;;;;;;;;;;5033851;28;20204;-82
2021/04/28 11:24:54;;;;;;;12.48;8.93;;;;;;;;;;5032763;28;20748;-82
2021/04/28 11:27:40;;;;;;;10.97;8.93;;;;;;;;;;5033431;28;20247;-82
2021/04/28 11:30:19;;;;;;;9.80;8.43;;;;;;;;;;5033649;28;20541;-81
2021/04/28 11:33:00;;;;;;;14.93;9.10;;;;;;;;;;5015993;28;20211;-82
2021/04/28 11:35:27;;;;;;;9.60;8.07;;;;;;;;;;5032479;28;20216;-83
2021/04/28 11:38:02;;;;;;;9.53;8.43;;;;;;;;;;5034188;28;20208;-82
2021/04/28 11:40:28;;;;;;;10.02;8.88;;;;;;;;;;5032737;28;20713;-79
2021/04/28 11:42:54;;;;;;;9.32;8.43;;;;;;;;;;5033754;28;20212;-80
2021/04/28 11:45:20;;;;;;;13.77;8.00;;;;;;;;;;5033542;28;20212;-80
2021/04/28 11:47:46;;;;;;;9.45;8.52;;;;;;;;;;5015739;28;20227;-80
2021/04/28 11:50:12;;;;;;;13.07;8.57;;;;;;;;;;5015576;28;20215;-82
2021/04/28 11:52:39;;;;;;;9.45;7.20;;;;;;;;;;5033120;28;20256;-81
2021/04/28 11:55:06;;;;;;;11.98;8.25;;;;;;;;;;5033443;28;20212;-82
2021/04/28 11:57:34;;;;;;;11.45;7.65;;;;;;;;;;5015428;28;20973;-80
2021/04/28 12:00:04;;;;;;;11.23;8.43;;;;;;;;;;5015706;28;20227;-82
2021/04/28 12:02:30;;;;;;;9.83;7.97;;;;;;;;;;5033208;28;20180;-82
2021/04/28 12:04:56;;;;;;;10.48;7.28;;;;;;;;;;5015675;28;20199;-82
2021/04/28 12:07:22;;;;;;;8.90;7.93;;;;;;;;;;5032966;28;20262;-83
2021/04/28 12:09:51;;;;;;;13.77;8.70;;;;;;;;;;5032990;28;20671;-81
2021/04/28 12:12:19;;;;;;;10.02;8.25;;;;;;;;;;5033047;28;20262;-83
2021/04/28 12:14:46;;;;;;;14.15;9.20;;;;;;;;;;5033627;28;20208;-83
2021/04/28 12:17:13;;;;;;;10.45;8.18;;;;;;;;;;5033100;28;20227;-83
2021/04/28 12:19:39;;;;;;;8.35;7.55;;;;;;;;;;5033638;28;20240;-82
2021/04/28 12:22:06;;;;;;;16.40;7.85;;;;;;;;;;5033977;28;20548;-82
2021/04/28 12:24:33;;;;;;;11.77;7.45;;;;;;;;;;5032966;28;20212;-82
2021/04/28 12:27:07;;;;;;;11.23;7.95;;;;;;;;;;5015394;28;20216;-82
2021/04/28 12:29:35;;;;;;;15.00;7.90;;;;;;;;;;5033499;28;20250;-83
2021/04/28 12:32:01;;;;;;;7.63;6.72;;;;;;;;;;5033920;28;20266;-82
2021/04/28 12:34:27;;;;;;;11.98;7.43;;;;;;;;;;5015839;28;20193;-82
2021/04/28 12:36:53;;;;;;;7.38;6.68;;;;;;;;;;5033631;28;20184;-83
2021/04/28 12:39:24;;;;;;;7.53;6.63;;;;;;;;;;5015511;28;20204;-82
2021/04/28 12:41:50;;;;;;;12.25;7.28;;;;;;;;;;5033316;28;20672;-83
2021/04/28 12:44:17;;;;;;;8.45;7.20;;;;;;;;;;5032929;28;20208;-82
2021/04/28 12:46:44;;;;;;;14.93;7.40;;;;;;;;;;5033608;28;20216;-83
2021/04/28 12:49:11;;;;;;;10.48;7.90;;;;;;;;;;5035974;28;20243;-82
2021/04/28 12:51:42;;;;;;;9.18;6.60;;;;;;;;;;5036935;28;20263;-83
2021/04/28 12:54:08;;;;;;;10.48;7.07;;;;;;;;;;5018524;28;20200;-82
2021/04/28 12:56:38;;;;;;;6.18;5.53;;;;;;;;;;5036386;28;20212;-84
2021/04/28 12:59:14;;;;;;;8.50;5.85;;;;;;;;;;5036532;28;20633;-85
2021/04/28 13:01:41;;;;;;;13.07;6.00;;;;;;;;;;5018743;28;20211;-83
2021/04/28 13:04:17;;;;;;;7.75;6.00;;;;;;;;;;5034765;28;20254;-84
2021/04/28 13:06:44;;;;;;;6.15;5.55;;;;;;;;;;5018988;28;20298;-84
2021/04/28 13:09:12;;;;;;;6.43;5.45;;;;;;;;;;5018318;28;20192;-83
2021/04/28 13:11:40;;;;;;;7.20;5.35;;;;;;;;;;5018564;28;20251;-83
2021/04/28 13:14:07;;;;;;;7.65;6.05;;;;;;;;;;5035745;28;20212;-83
2021/04/28 13:16:37;;;;;;;5.65;5.05;;;;;;;;;;5018703;28;20270;-83
2021/04/28 13:19:08;;;;;;;7.13;5.28;;;;;;;;;;5018356;28;20231;-82
2021/04/28 13:21:34;;;;;;;6.70;5.00;;;;;;;;;;5035056;28;20205;-79
2021/04/28 13:24:02;;;;;;;12.77;6.43;;;;;;;;;;5036199;28;20243;-82
2021/04/28 13:26:28;;;;;;;8.77;6.57;;;;;;;;;;5035962;28;20250;-83
2021/04/28 13:28:56;;;;;;;8.20;5.20;;;;;;;;;;5035584;28;20668;-83
2021/04/28 13:31:23;;;;;;;6.40;5.68;;;;;;;;;;5018131;28;20244;-84
2021/04/28 13:33:50;;;;;;;11.10;6.30;;;;;;;;;;5018117;28;20706;-84
2021/04/28 13:36:20;;;;;;;6.18;4.20;;;;;;;;;;5036164;28;20567;-83
2021/04/28 13:38:47;;;;;;;6.53;3.88;;;;;;;;;;5017832;28;20200;-83
2021/04/28 13:41:13;;;;;;;3.67;3.17;;;;;;;;;;5018045;28;20236;-84
2021/04/28 13:43:39;;;;;;;9.85;4.95;;;;;;;;;;5017993;28;20656;-84
2021/04/28 13:46:06;;;;;;;5.15;4.53;;;;;;;;;;5018791;28;20556;-84
2021/04/28 13:48:32;;;;;;;3.83;3.53;;;;;;;;;;5035568;28;20212;-84
2021/04/28 13:50:58;;;;;;;6.57;3.20;;;;;;;;;;5018012;28;20250;-84
2021/04/28 13:53:25;;;;;;;5.22;3.33;;;;;;;;;;5018195;28;20188;-84
2021/04/28 13:55:53;;;;;;;4.28;3.88;;;;;;;;;;5034898;28;20211;-85
2021/04/28 13:58:20;;;;;;;3.85;3.25;;;;;;;;;;5017865;28;20560;-83
2021/04/28 14:00:46;;;;;;;3.42;3.22;;;;;;;;;;5075774;28;20182;-83
2021/04/28 14:03:12;;;;;;;5.00;2.92;;;;;;;;;;5057604;28;20240;-84
2021/04/28 14:05:38;;;;;;;3.88;3.00;;;;;;;;;;5057715;28;20182;-85
2021/04/28 14:08:05;;;;;;;4.32;3.10;;;;;;;;;;5070903;28;20916;-85
2021/04/28 14:10:32;;;;;;;4.13;2.90;;;;;;;;;;5037337;28;20721;-83
2021/04/28 14:12:58;;;;;;;3.50;3.20;;;;;;;;;;5054795;28;20258;-83
2021/04/28 14:15:24;;;;;;;4.20;2.55;;;;;;;;;;5054931;28;20228;-84
2021/04/28 14:17:50;;;;;;;3.92;2.83;;;;;;;;;;5075070;28;20210;-84
2021/04/28 14:20:17;;;;;;;8.55;2.70;;;;;;;;;;5074737;28;20782;-87
2021/04/28 14:22:43;;;;;;;3.65;2.40;;;;;;;;;;5058252;28;20194;-88
2021/04/28 14:25:10;;;;;;;3.15;2.80;;;;;;;;;;5075865;28;20179;-89
2021/04/28 14:27:37;;;;;;;3.72;2.63;;;;;;;;;;5058335;28;21014;-87
2021/04/28 14:30:04;;;;;;;4.75;2.60;;;;;;;;;;5074312;28;20206;-87
2021/04/28 14:32:30;;;;;;;6.63;2.50;;;;;;;;;;5058734;28;20793;-90
2021/04/28 14:34:56;;;;;;;2.50;2.40;;;;;;;;;;5058833;28;20257;-88
2021/04/28 14:37:23;;;;;;;4.32;2.83;;;;;;;;;;5058785;28;20187;-87
2021/04/28 14:39:49;;;;;;;2.67;2.47;;;;;;;;;;5058221;28;20257;-84